sensor_id;sensor_type;location;lat;lon;timestamp;temperature;humidity
22526;DHT22;11429;50.842;4.386;2023-07-22T00:02:17;18.00;99.90
22526;DHT22;11429;50.842;4.386;2023-07-22T00:04:43;18.00;99.90
22526;DHT22;11429;50.842;4.386;2023-07-22T00:07:09;18.10;99.90
22526;DHT22;11429;50.842;4.386;2023-07-22T00:09:34;18.00;99.90
22526;DHT22;11429;50.842;4.386;2023-07-22T00:12:00;17.80;99.90
22526;DHT22;11429;50.842;4.386;2023-07-22T00:16:56;17.70;99.90
22526;DHT22;11429;50.842;4.386;2023-07-22T00:19:22;17.50;99.90
22526;DHT22;11429;50.842;4.386;2023-07-22T00:21:49;17.50;99.90
22526;DHT22;11429;50.842;4.386;2023-07-22T00:24:14;17.40;99.90
22526;DHT22;11429;50.842;4.386;2023-07-22T00:26:40;17.30;99.90
22526;DHT22;11429;50.842;4.386;2023-07-22T00:29:07;17.20;99.90
22526;DHT22;11429;50.842;4.386;2023-07-22T00:31:33;17.30;99.90
22526;DHT22;11429;50.842;4.386;2023-07-22T00:33:59;17.40;99.90
22526;DHT22;11429;50.842;4.386;2023-07-22T00:36:25;17.40;99.90
22526;DHT22;11429;50.842;4.386;2023-07-22T00:38:51;17.20;99.90
22526;DHT22;11429;50.842;4.386;2023-07-22T00:41:18;17.30;99.90
22526;DHT22;11429;50.842;4.386;2023-07-22T00:43:44;17.30;99.90
22526;DHT22;11429;50.842;4.386;2023-07-22T00:46:10;17.30;99.90
22526;DHT22;11429;50.842;4.386;2023-07-22T00:48:36;17.20;99.90
22526;DHT22;11429;50.842;4.386;2023-07-22T00:51:03;17.20;99.90
22526;DHT22;11429;50.842;4.386;2023-07-22T00:53:29;17.40;99.90
22526;DHT22;11429;50.842;4.386;2023-07-22T00:55:55;17.40;99.90
22526;DHT22;11429;50.842;4.386;2023-07-22T00:58:21;17.20;99.90
22526;DHT22;11429;50.842;4.386;2023-07-22T01:00:47;17.10;99.90
22526;DHT22;11429;50.842;4.386;2023-07-22T01:03:13;17.10;99.90
22526;DHT22;11429;50.842;4.386;2023-07-22T01:05:39;17.00;99.90
22526;DHT22;11429;50.842;4.386;2023-07-22T01:08:07;17.00;99.90
22526;DHT22;11429;50.842;4.386;2023-07-22T01:10:32;17.00;99.90
22526;DHT22;11429;50.842;4.386;2023-07-22T01:12:58;17.00;99.90
22526;DHT22;11429;50.842;4.386;2023-07-22T01:15:24;16.70;99.90
22526;DHT22;11429;50.842;4.386;2023-07-22T01:17:50;16.70;99.90
22526;DHT22;11429;50.842;4.386;2023-07-22T01:20:17;16.70;99.90
22526;DHT22;11429;50.842;4.386;2023-07-22T01:22:54;16.60;99.90
22526;DHT22;11429;50.842;4.386;2023-07-22T01:25:23;16.70;99.90
22526;DHT22;11429;50.842;4.386;2023-07-22T01:27:52;16.70;99.90
22526;DHT22;11429;50.842;4.386;2023-07-22T01:30:18;16.70;99.90
22526;DHT22;11429;50.842;4.386;2023-07-22T01:32:45;16.70;99.90
22526;DHT22;11429;50.842;4.386;2023-07-22T01:35:11;16.60;99.90
22526;DHT22;11429;50.842;4.386;2023-07-22T01:37:37;16.60;99.90
22526;DHT22;11429;50.842;4.386;2023-07-22T01:40:03;16.40;99.90
22526;DHT22;11429;50.842;4.386;2023-07-22T01:42:39;16.30;99.90
22526;DHT22;11429;50.842;4.386;2023-07-22T01:45:05;16.30;99.90
22526;DHT22;11429;50.842;4.386;2023-07-22T01:47:34;16.40;99.90
22526;DHT22;11429;50.842;4.386;2023-07-22T01:50:01;16.50;99.90
22526;DHT22;11429;50.842;4.386;2023-07-22T01:52:27;16.40;99.90
22526;DHT22;11429;50.842;4.386;2023-07-22T01:54:52;16.30;99.90
22526;DHT22;11429;50.842;4.386;2023-07-22T01:57:18;16.40;99.90
22526;DHT22;11429;50.842;4.386;2023-07-22T01:59:44;16.30;99.90
22526;DHT22;11429;50.842;4.386;2023-07-22T02:02:10;16.20;99.90
22526;DHT22;11429;50.842;4.386;2023-07-22T02:04:35;16.30;99.90
22526;DHT22;11429;50.842;4.386;2023-07-22T02:07:01;16.30;99.90
22526;DHT22;11429;50.842;4.386;2023-07-22T02:09:28;16.50;99.90
22526;DHT22;11429;50.842;4.386;2023-07-22T02:11:53;16.40;99.90
22526;DHT22;11429;50.842;4.386;2023-07-22T02:14:19;16.30;99.90
22526;DHT22;11429;50.842;4.386;2023-07-22T02:16:45;16.30;99.90
22526;DHT22;11429;50.842;4.386;2023-07-22T02:19:11;16.10;99.90
22526;DHT22;11429;50.842;4.386;2023-07-22T02:21:36;16.20;99.90
22526;DHT22;11429;50.842;4.386;2023-07-22T02:24:02;16.10;99.90
22526;DHT22;11429;50.842;4.386;2023-07-22T02:26:28;16.00;99.90
22526;DHT22;11429;50.842;4.386;2023-07-22T02:28:53;16.00;99.90
22526;DHT22;11429;50.842;4.386;2023-07-22T02:31:20;15.70;99.90
22526;DHT22;11429;50.842;4.386;2023-07-22T02:33:47;15.80;99.90
22526;DHT22;11429;50.842;4.386;2023-07-22T02:36:13;16.00;99.90
22526;DHT22;11429;50.842;4.386;2023-07-22T02:38:38;15.90;99.90
22526;DHT22;11429;50.842;4.386;2023-07-22T02:41:05;15.90;99.90
22526;DHT22;11429;50.842;4.386;2023-07-22T02:43:33;16.10;99.90
22526;DHT22;11429;50.842;4.386;2023-07-22T02:46:04;15.90;99.90
22526;DHT22;11429;50.842;4.386;2023-07-22T02:48:31;16.00;99.90
22526;DHT22;11429;50.842;4.386;2023-07-22T02:51:17;15.80;99.90
22526;DHT22;11429;50.842;4.386;2023-07-22T02:53:43;15.70;99.90
22526;DHT22;11429;50.842;4.386;2023-07-22T02:56:10;15.60;99.90
22526;DHT22;11429;50.842;4.386;2023-07-22T02:58:36;15.60;99.90
22526;DHT22;11429;50.842;4.386;2023-07-22T03:01:04;15.60;99.90
22526;DHT22;11429;50.842;4.386;2023-07-22T03:03:30;15.70;99.90
22526;DHT22;11429;50.842;4.386;2023-07-22T03:05:59;15.50;99.90
22526;DHT22;11429;50.842;4.386;2023-07-22T03:08:25;15.50;99.90
22526;DHT22;11429;50.842;4.386;2023-07-22T03:10:51;15.40;99.90
22526;DHT22;11429;50.842;4.386;2023-07-22T03:13:16;15.40;99.90
22526;DHT22;11429;50.842;4.386;2023-07-22T03:15:43;15.40;99.90
22526;DHT22;11429;50.842;4.386;2023-07-22T03:18:09;15.60;99.90
22526;DHT22;11429;50.842;4.386;2023-07-22T03:20:39;15.60;99.90
22526;DHT22;11429;50.842;4.386;2023-07-22T03:23:05;15.70;99.90
22526;DHT22;11429;50.842;4.386;2023-07-22T03:25:32;15.50;99.90
22526;DHT22;11429;50.842;4.386;2023-07-22T03:28:02;15.50;99.90
22526;DHT22;11429;50.842;4.386;2023-07-22T03:30:28;15.40;99.90
22526;DHT22;11429;50.842;4.386;2023-07-22T03:32:54;15.40;99.90
22526;DHT22;11429;50.842;4.386;2023-07-22T03:35:20;15.50;99.90
22526;DHT22;11429;50.842;4.386;2023-07-22T03:37:46;15.40;99.90
22526;DHT22;11429;50.842;4.386;2023-07-22T03:40:11;15.20;99.90
22526;DHT22;11429;50.842;4.386;2023-07-22T03:42:54;15.10;99.90
22526;DHT22;11429;50.842;4.386;2023-07-22T03:45:20;15.00;99.90
22526;DHT22;11429;50.842;4.386;2023-07-22T03:47:53;14.80;99.90
22526;DHT22;11429;50.842;4.386;2023-07-22T03:50:19;14.80;99.90
22526;DHT22;11429;50.842;4.386;2023-07-22T03:52:45;14.80;99.90
22526;DHT22;11429;50.842;4.386;2023-07-22T03:57:38;14.70;99.90
22526;DHT22;11429;50.842;4.386;2023-07-22T04:00:05;14.80;99.90
22526;DHT22;11429;50.842;4.386;2023-07-22T04:02:31;15.00;99.90
22526;DHT22;11429;50.842;4.386;2023-07-22T04:04:57;14.90;99.90
22526;DHT22;11429;50.842;4.386;2023-07-22T04:07:22;14.90;99.90
22526;DHT22;11429;50.842;4.386;2023-07-22T04:09:49;14.90;99.90
22526;DHT22;11429;50.842;4.386;2023-07-22T04:12:15;14.90;99.90
22526;DHT22;11429;50.842;4.386;2023-07-22T04:14:40;15.10;99.90
22526;DHT22;11429;50.842;4.386;2023-07-22T04:17:06;15.20;99.90
22526;DHT22;11429;50.842;4.386;2023-07-22T04:19:33;15.10;99.90
22526;DHT22;11429;50.842;4.386;2023-07-22T04:21:58;15.00;99.90
22526;DHT22;11429;50.842;4.386;2023-07-22T04:24:25;15.10;99.90
22526;DHT22;11429;50.842;4.386;2023-07-22T04:26:51;15.10;99.90
22526;DHT22;11429;50.842;4.386;2023-07-22T04:29:17;15.20;99.90
22526;DHT22;11429;50.842;4.386;2023-07-22T04:31:43;15.30;99.90
22526;DHT22;11429;50.842;4.386;2023-07-22T04:34:08;15.30;99.90
22526;DHT22;11429;50.842;4.386;2023-07-22T04:36:34;15.40;99.90
22526;DHT22;11429;50.842;4.386;2023-07-22T04:39:02;15.40;99.90
22526;DHT22;11429;50.842;4.386;2023-07-22T04:41:30;15.30;99.90
22526;DHT22;11429;50.842;4.386;2023-07-22T04:43:57;15.60;99.90
22526;DHT22;11429;50.842;4.386;2023-07-22T04:46:24;15.50;99.90
22526;DHT22;11429;50.842;4.386;2023-07-22T04:48:49;15.50;99.90
22526;DHT22;11429;50.842;4.386;2023-07-22T04:51:15;15.50;99.90
22526;DHT22;11429;50.842;4.386;2023-07-22T04:53:41;15.60;99.90
22526;DHT22;11429;50.842;4.386;2023-07-22T04:56:06;15.60;99.90
22526;DHT22;11429;50.842;4.386;2023-07-22T04:58:32;15.80;99.90
22526;DHT22;11429;50.842;4.386;2023-07-22T05:00:58;15.90;99.90
22526;DHT22;11429;50.842;4.386;2023-07-22T05:03:24;16.00;99.90
22526;DHT22;11429;50.842;4.386;2023-07-22T05:05:52;16.20;99.90
22526;DHT22;11429;50.842;4.386;2023-07-22T05:08:18;16.00;99.90
22526;DHT22;11429;50.842;4.386;2023-07-22T05:10:43;15.90;99.90
22526;DHT22;11429;50.842;4.386;2023-07-22T05:13:09;15.70;99.90
22526;DHT22;11429;50.842;4.386;2023-07-22T05:15:35;15.80;99.90
22526;DHT22;11429;50.842;4.386;2023-07-22T05:18:00;15.90;99.90
22526;DHT22;11429;50.842;4.386;2023-07-22T05:20:26;15.80;99.90
22526;DHT22;11429;50.842;4.386;2023-07-22T05:22:52;15.90;99.90
22526;DHT22;11429;50.842;4.386;2023-07-22T05:25:17;15.90;99.90
22526;DHT22;11429;50.842;4.386;2023-07-22T05:27:43;15.80;99.90
22526;DHT22;11429;50.842;4.386;2023-07-22T05:30:12;16.00;99.90
22526;DHT22;11429;50.842;4.386;2023-07-22T05:32:38;16.30;99.90
22526;DHT22;11429;50.842;4.386;2023-07-22T05:35:03;16.80;99.90
22526;DHT22;11429;50.842;4.386;2023-07-22T05:37:31;17.20;99.90
22526;DHT22;11429;50.842;4.386;2023-07-22T05:39:56;17.90;99.90
22526;DHT22;11429;50.842;4.386;2023-07-22T05:42:22;18.00;99.90
22526;DHT22;11429;50.842;4.386;2023-07-22T05:44:48;18.70;99.90
22526;DHT22;11429;50.842;4.386;2023-07-22T05:47:14;19.40;99.90
22526;DHT22;11429;50.842;4.386;2023-07-22T05:49:40;19.30;99.90
22526;DHT22;11429;50.842;4.386;2023-07-22T05:52:06;19.00;99.90
22526;DHT22;11429;50.842;4.386;2023-07-22T05:54:32;18.60;99.90
22526;DHT22;11429;50.842;4.386;2023-07-22T05:56:57;18.60;99.90
22526;DHT22;11429;50.842;4.386;2023-07-22T05:59:23;18.50;99.90
22526;DHT22;11429;50.842;4.386;2023-07-22T06:01:50;18.70;99.90
22526;DHT22;11429;50.842;4.386;2023-07-22T06:04:16;18.50;99.90
22526;DHT22;11429;50.842;4.386;2023-07-22T06:06:41;18.30;99.90
22526;DHT22;11429;50.842;4.386;2023-07-22T06:09:07;18.30;99.90
22526;DHT22;11429;50.842;4.386;2023-07-22T06:11:33;19.00;99.90
22526;DHT22;11429;50.842;4.386;2023-07-22T06:13:58;19.50;99.90
22526;DHT22;11429;50.842;4.386;2023-07-22T06:16:24;19.10;99.90
22526;DHT22;11429;50.842;4.386;2023-07-22T06:18:50;18.90;99.90
22526;DHT22;11429;50.842;4.386;2023-07-22T06:21:15;18.70;99.90
22526;DHT22;11429;50.842;4.386;2023-07-22T06:23:41;18.50;99.90
22526;DHT22;11429;50.842;4.386;2023-07-22T06:26:07;18.20;99.90
22526;DHT22;11429;50.842;4.386;2023-07-22T06:28:32;18.10;99.90
22526;DHT22;11429;50.842;4.386;2023-07-22T06:30:58;17.90;99.90
22526;DHT22;11429;50.842;4.386;2023-07-22T06:33:24;17.90;99.90
22526;DHT22;11429;50.842;4.386;2023-07-22T06:35:49;18.20;99.90
22526;DHT22;11429;50.842;4.386;2023-07-22T06:38:15;18.00;99.90
22526;DHT22;11429;50.842;4.386;2023-07-22T06:40:41;18.20;99.90
22526;DHT22;11429;50.842;4.386;2023-07-22T06:43:06;18.10;99.90
22526;DHT22;11429;50.842;4.386;2023-07-22T06:45:32;18.30;99.90
22526;DHT22;11429;50.842;4.386;2023-07-22T06:47:58;18.60;99.90
22526;DHT22;11429;50.842;4.386;2023-07-22T06:50:24;18.50;99.90
22526;DHT22;11429;50.842;4.386;2023-07-22T06:52:50;18.50;99.90
22526;DHT22;11429;50.842;4.386;2023-07-22T06:55:16;18.40;99.90
22526;DHT22;11429;50.842;4.386;2023-07-22T06:57:42;18.50;99.90
22526;DHT22;11429;50.842;4.386;2023-07-22T07:00:08;18.20;99.90
22526;DHT22;11429;50.842;4.386;2023-07-22T07:02:35;18.20;99.90
22526;DHT22;11429;50.842;4.386;2023-07-22T07:05:01;18.40;99.90
22526;DHT22;11429;50.842;4.386;2023-07-22T07:07:27;18.50;99.90
22526;DHT22;11429;50.842;4.386;2023-07-22T07:09:53;18.80;99.90
22526;DHT22;11429;50.842;4.386;2023-07-22T07:12:18;18.30;99.90
22526;DHT22;11429;50.842;4.386;2023-07-22T07:14:44;18.40;99.90
22526;DHT22;11429;50.842;4.386;2023-07-22T07:17:10;18.50;99.90
22526;DHT22;11429;50.842;4.386;2023-07-22T07:19:35;19.60;99.90
22526;DHT22;11429;50.842;4.386;2023-07-22T07:22:01;21.30;99.90
22526;DHT22;11429;50.842;4.386;2023-07-22T07:24:27;21.80;99.90
22526;DHT22;11429;50.842;4.386;2023-07-22T07:26:53;22.00;99.90
22526;DHT22;11429;50.842;4.386;2023-07-22T07:29:18;22.60;99.90
22526;DHT22;11429;50.842;4.386;2023-07-22T07:31:44;22.60;99.90
22526;DHT22;11429;50.842;4.386;2023-07-22T07:34:10;22.40;99.90
22526;DHT22;11429;50.842;4.386;2023-07-22T07:36:35;22.20;99.90
22526;DHT22;11429;50.842;4.386;2023-07-22T07:39:01;21.20;99.90
22526;DHT22;11429;50.842;4.386;2023-07-22T07:41:28;20.80;99.90
22526;DHT22;11429;50.842;4.386;2023-07-22T07:43:54;20.40;99.90
22526;DHT22;11429;50.842;4.386;2023-07-22T07:46:27;20.20;99.90
22526;DHT22;11429;50.842;4.386;2023-07-22T07:48:58;20.70;99.90
22526;DHT22;11429;50.842;4.386;2023-07-22T07:51:25;21.00;99.90
22526;DHT22;11429;50.842;4.386;2023-07-22T07:53:53;21.10;99.90
22526;DHT22;11429;50.842;4.386;2023-07-22T07:56:20;21.20;99.90
22526;DHT22;11429;50.842;4.386;2023-07-22T07:58:47;21.20;99.90
22526;DHT22;11429;50.842;4.386;2023-07-22T08:01:13;21.50;99.90
22526;DHT22;11429;50.842;4.386;2023-07-22T08:03:40;21.90;99.90
22526;DHT22;11429;50.842;4.386;2023-07-22T08:06:07;21.60;99.90
22526;DHT22;11429;50.842;4.386;2023-07-22T08:08:33;21.60;99.90
22526;DHT22;11429;50.842;4.386;2023-07-22T08:13:33;20.60;99.90
22526;DHT22;11429;50.842;4.386;2023-07-22T08:16:02;20.50;99.90
22526;DHT22;11429;50.842;4.386;2023-07-22T08:18:29;20.60;99.90
22526;DHT22;11429;50.842;4.386;2023-07-22T08:20:55;20.60;99.90
22526;DHT22;11429;50.842;4.386;2023-07-22T08:23:21;20.80;99.90
22526;DHT22;11429;50.842;4.386;2023-07-22T08:25:46;20.60;99.90
22526;DHT22;11429;50.842;4.386;2023-07-22T08:28:12;20.30;99.90
22526;DHT22;11429;50.842;4.386;2023-07-22T08:30:38;20.60;99.90
22526;DHT22;11429;50.842;4.386;2023-07-22T08:33:06;20.60;99.90
22526;DHT22;11429;50.842;4.386;2023-07-22T08:35:37;20.80;99.90
22526;DHT22;11429;50.842;4.386;2023-07-22T08:38:04;20.90;99.90
22526;DHT22;11429;50.842;4.386;2023-07-22T08:40:38;21.30;99.90
22526;DHT22;11429;50.842;4.386;2023-07-22T08:43:05;21.90;99.90
22526;DHT22;11429;50.842;4.386;2023-07-22T08:45:32;21.70;99.90
22526;DHT22;11429;50.842;4.386;2023-07-22T08:48:08;21.70;99.90
22526;DHT22;11429;50.842;4.386;2023-07-22T08:53:25;22.20;99.90
22526;DHT22;11429;50.842;4.386;2023-07-22T08:55:51;22.80;99.90
22526;DHT22;11429;50.842;4.386;2023-07-22T08:58:19;22.40;99.90
22526;DHT22;11429;50.842;4.386;2023-07-22T09:00:45;21.70;99.90
22526;DHT22;11429;50.842;4.386;2023-07-22T09:03:13;21.50;99.90
22526;DHT22;11429;50.842;4.386;2023-07-22T09:05:40;21.10;99.90
22526;DHT22;11429;50.842;4.386;2023-07-22T09:08:07;22.10;99.90
22526;DHT22;11429;50.842;4.386;2023-07-22T09:10:34;22.90;99.90
22526;DHT22;11429;50.842;4.386;2023-07-22T09:13:01;23.70;99.90
22526;DHT22;11429;50.842;4.386;2023-07-22T09:15:27;23.80;99.90
22526;DHT22;11429;50.842;4.386;2023-07-22T09:17:53;24.50;99.90
22526;DHT22;11429;50.842;4.386;2023-07-22T09:20:20;25.70;99.90
22526;DHT22;11429;50.842;4.386;2023-07-22T09:22:47;24.80;99.90
22526;DHT22;11429;50.842;4.386;2023-07-22T09:27:48;24.80;99.90
22526;DHT22;11429;50.842;4.386;2023-07-22T09:32:56;25.80;99.90
22526;DHT22;11429;50.842;4.386;2023-07-22T09:35:26;26.30;99.90
22526;DHT22;11429;50.842;4.386;2023-07-22T09:37:53;26.40;99.90
22526;DHT22;11429;50.842;4.386;2023-07-22T09:40:23;27.50;99.90
22526;DHT22;11429;50.842;4.386;2023-07-22T09:42:57;27.70;99.90
22526;DHT22;11429;50.842;4.386;2023-07-22T09:45:24;27.50;99.90
22526;DHT22;11429;50.842;4.386;2023-07-22T09:47:53;26.50;99.90
22526;DHT22;11429;50.842;4.386;2023-07-22T09:50:24;25.80;99.90
22526;DHT22;11429;50.842;4.386;2023-07-22T09:52:52;25.90;99.90
22526;DHT22;11429;50.842;4.386;2023-07-22T09:55:26;24.70;99.90
22526;DHT22;11429;50.842;4.386;2023-07-22T09:57:59;23.90;99.90
22526;DHT22;11429;50.842;4.386;2023-07-22T10:00:31;24.60;99.90
22526;DHT22;11429;50.842;4.386;2023-07-22T10:02:59;25.30;99.90
22526;DHT22;11429;50.842;4.386;2023-07-22T10:05:27;25.70;99.90
22526;DHT22;11429;50.842;4.386;2023-07-22T10:07:58;26.00;99.90
22526;DHT22;11429;50.842;4.386;2023-07-22T10:10:27;26.60;99.90
22526;DHT22;11429;50.842;4.386;2023-07-22T10:12:55;27.20;99.90
22526;DHT22;11429;50.842;4.386;2023-07-22T10:15:23;27.80;99.90
22526;DHT22;11429;50.842;4.386;2023-07-22T10:17:50;27.70;99.90
22526;DHT22;11429;50.842;4.386;2023-07-22T10:20:17;28.30;99.90
22526;DHT22;11429;50.842;4.386;2023-07-22T10:22:46;29.40;99.90
22526;DHT22;11429;50.842;4.386;2023-07-22T10:25:15;28.10;99.90
22526;DHT22;11429;50.842;4.386;2023-07-22T10:27:42;26.90;99.90
22526;DHT22;11429;50.842;4.386;2023-07-22T10:30:13;27.20;99.90
22526;DHT22;11429;50.842;4.386;2023-07-22T10:32:42;26.50;99.90
22526;DHT22;11429;50.842;4.386;2023-07-22T10:35:22;27.60;99.90
22526;DHT22;11429;50.842;4.386;2023-07-22T10:37:52;28.10;99.90
22526;DHT22;11429;50.842;4.386;2023-07-22T10:40:26;28.50;99.90
22526;DHT22;11429;50.842;4.386;2023-07-22T10:43:06;28.30;99.90
22526;DHT22;11429;50.842;4.386;2023-07-22T10:45:33;28.30;99.90
22526;DHT22;11429;50.842;4.386;2023-07-22T10:48:05;28.20;99.90
22526;DHT22;11429;50.842;4.386;2023-07-22T10:50:45;27.40;99.90
22526;DHT22;11429;50.842;4.386;2023-07-22T10:56:12;26.50;99.90
22526;DHT22;11429;50.842;4.386;2023-07-22T10:58:58;27.10;99.90
22526;DHT22;11429;50.842;4.386;2023-07-22T11:12:03;25.70;99.90
22526;DHT22;11429;50.842;4.386;2023-07-22T11:14:33;25.40;99.90
22526;DHT22;11429;50.842;4.386;2023-07-22T11:17:01;25.80;99.90
22526;DHT22;11429;50.842;4.386;2023-07-22T11:19:29;26.20;99.90
22526;DHT22;11429;50.842;4.386;2023-07-22T11:21:54;26.20;99.90
22526;DHT22;11429;50.842;4.386;2023-07-22T11:24:21;26.60;99.90
22526;DHT22;11429;50.842;4.386;2023-07-22T11:26:48;27.30;99.90
22526;DHT22;11429;50.842;4.386;2023-07-22T11:29:16;27.50;99.90
22526;DHT22;11429;50.842;4.386;2023-07-22T11:31:47;28.00;99.90
22526;DHT22;11429;50.842;4.386;2023-07-22T11:34:22;27.50;99.90
22526;DHT22;11429;50.842;4.386;2023-07-22T11:36:49;27.10;99.90
22526;DHT22;11429;50.842;4.386;2023-07-22T11:39:18;27.40;99.90
22526;DHT22;11429;50.842;4.386;2023-07-22T11:41:44;27.70;99.90
22526;DHT22;11429;50.842;4.386;2023-07-22T11:44:12;28.30;99.90
22526;DHT22;11429;50.842;4.386;2023-07-22T11:49:27;28.20;99.90
22526;DHT22;11429;50.842;4.386;2023-07-22T11:52:01;27.60;99.90
22526;DHT22;11429;50.842;4.386;2023-07-22T11:54:28;27.00;99.90
22526;DHT22;11429;50.842;4.386;2023-07-22T11:56:55;27.40;99.90
22526;DHT22;11429;50.842;4.386;2023-07-22T11:59:38;27.20;99.90
22526;DHT22;11429;50.842;4.386;2023-07-22T12:02:04;27.60;99.90
22526;DHT22;11429;50.842;4.386;2023-07-22T12:04:32;26.70;99.90
22526;DHT22;11429;50.842;4.386;2023-07-22T12:06:58;26.20;99.90
22526;DHT22;11429;50.842;4.386;2023-07-22T12:09:24;26.10;99.90
22526;DHT22;11429;50.842;4.386;2023-07-22T12:11:55;26.10;99.90
22526;DHT22;11429;50.842;4.386;2023-07-22T12:14:22;25.40;99.90
22526;DHT22;11429;50.842;4.386;2023-07-22T12:16:55;25.40;99.90
22526;DHT22;11429;50.842;4.386;2023-07-22T12:19:22;26.20;99.90
22526;DHT22;11429;50.842;4.386;2023-07-22T12:21:47;26.00;99.90
22526;DHT22;11429;50.842;4.386;2023-07-22T12:24:14;26.20;99.90
22526;DHT22;11429;50.842;4.386;2023-07-22T12:26:40;26.40;99.90
22526;DHT22;11429;50.842;4.386;2023-07-22T12:29:07;26.30;99.90
22526;DHT22;11429;50.842;4.386;2023-07-22T12:31:33;26.20;99.90
22526;DHT22;11429;50.842;4.386;2023-07-22T12:33:59;26.20;99.90
22526;DHT22;11429;50.842;4.386;2023-07-22T12:36:25;26.50;99.90
22526;DHT22;11429;50.842;4.386;2023-07-22T12:38:51;26.50;99.90
22526;DHT22;11429;50.842;4.386;2023-07-22T12:41:16;26.30;99.90
22526;DHT22;11429;50.842;4.386;2023-07-22T12:43:42;26.10;99.90
22526;DHT22;11429;50.842;4.386;2023-07-22T12:46:08;26.00;99.90
22526;DHT22;11429;50.842;4.386;2023-07-22T12:48:33;25.80;99.90
22526;DHT22;11429;50.842;4.386;2023-07-22T12:50:59;25.10;99.90
22526;DHT22;11429;50.842;4.386;2023-07-22T12:53:26;25.10;99.90
22526;DHT22;11429;50.842;4.386;2023-07-22T12:55:52;25.50;99.90
22526;DHT22;11429;50.842;4.386;2023-07-22T12:58:17;24.90;99.90
22526;DHT22;11429;50.842;4.386;2023-07-22T13:00:43;24.50;99.90
22526;DHT22;11429;50.842;4.386;2023-07-22T13:03:09;24.50;99.90
22526;DHT22;11429;50.842;4.386;2023-07-22T13:05:35;24.30;99.90
22526;DHT22;11429;50.842;4.386;2023-07-22T13:08:00;23.80;99.90
22526;DHT22;11429;50.842;4.386;2023-07-22T13:10:28;23.80;99.90
22526;DHT22;11429;50.842;4.386;2023-07-22T13:12:54;23.60;99.90
22526;DHT22;11429;50.842;4.386;2023-07-22T13:15:20;24.00;99.90
22526;DHT22;11429;50.842;4.386;2023-07-22T13:17:46;24.50;99.90
22526;DHT22;11429;50.842;4.386;2023-07-22T13:20:12;24.40;99.90
22526;DHT22;11429;50.842;4.386;2023-07-22T13:22:38;24.30;99.90
22526;DHT22;11429;50.842;4.386;2023-07-22T13:25:04;24.10;99.90
22526;DHT22;11429;50.842;4.386;2023-07-22T13:27:30;24.50;99.90
22526;DHT22;11429;50.842;4.386;2023-07-22T13:29:56;24.60;99.90
22526;DHT22;11429;50.842;4.386;2023-07-22T13:32:23;24.70;99.90
22526;DHT22;11429;50.842;4.386;2023-07-22T13:34:48;24.80;99.90
22526;DHT22;11429;50.842;4.386;2023-07-22T13:37:14;25.20;99.90
22526;DHT22;11429;50.842;4.386;2023-07-22T13:39:40;25.50;99.90
22526;DHT22;11429;50.842;4.386;2023-07-22T13:42:05;25.90;99.90
22526;DHT22;11429;50.842;4.386;2023-07-22T13:44:31;25.60;99.90
22526;DHT22;11429;50.842;4.386;2023-07-22T13:46:57;25.40;99.90
22526;DHT22;11429;50.842;4.386;2023-07-22T13:49:22;25.50;99.90
22526;DHT22;11429;50.842;4.386;2023-07-22T13:51:48;25.30;99.90
22526;DHT22;11429;50.842;4.386;2023-07-22T13:54:14;25.10;99.90
22526;DHT22;11429;50.842;4.386;2023-07-22T13:56:39;24.50;99.90
22526;DHT22;11429;50.842;4.386;2023-07-22T13:59:05;24.10;99.90
22526;DHT22;11429;50.842;4.386;2023-07-22T14:01:31;24.10;99.90
22526;DHT22;11429;50.842;4.386;2023-07-22T14:03:57;23.60;99.90
22526;DHT22;11429;50.842;4.386;2023-07-22T14:06:23;23.50;99.90
22526;DHT22;11429;50.842;4.386;2023-07-22T14:08:49;23.70;99.90
22526;DHT22;11429;50.842;4.386;2023-07-22T14:11:14;23.20;99.90
22526;DHT22;11429;50.842;4.386;2023-07-22T14:13:40;22.90;99.90
22526;DHT22;11429;50.842;4.386;2023-07-22T14:16:06;22.70;99.90
22526;DHT22;11429;50.842;4.386;2023-07-22T14:18:31;22.70;99.90
22526;DHT22;11429;50.842;4.386;2023-07-22T14:20:58;22.70;99.90
22526;DHT22;11429;50.842;4.386;2023-07-22T14:23:24;22.90;99.90
22526;DHT22;11429;50.842;4.386;2023-07-22T14:25:50;22.90;99.90
22526;DHT22;11429;50.842;4.386;2023-07-22T14:28:16;23.00;99.90
22526;DHT22;11429;50.842;4.386;2023-07-22T14:30:42;23.10;99.90
22526;DHT22;11429;50.842;4.386;2023-07-22T14:33:07;23.20;99.90
22526;DHT22;11429;50.842;4.386;2023-07-22T14:35:33;23.20;99.90
22526;DHT22;11429;50.842;4.386;2023-07-22T14:38:00;23.50;99.90
22526;DHT22;11429;50.842;4.386;2023-07-22T14:40:26;23.70;99.90
22526;DHT22;11429;50.842;4.386;2023-07-22T14:42:52;23.70;99.90
22526;DHT22;11429;50.842;4.386;2023-07-22T14:45:18;24.10;99.90
22526;DHT22;11429;50.842;4.386;2023-07-22T14:47:44;24.10;99.90
22526;DHT22;11429;50.842;4.386;2023-07-22T14:50:10;24.10;99.90
22526;DHT22;11429;50.842;4.386;2023-07-22T14:52:36;24.10;99.90
22526;DHT22;11429;50.842;4.386;2023-07-22T14:55:02;24.00;99.90
22526;DHT22;11429;50.842;4.386;2023-07-22T14:57:28;23.90;99.90
22526;DHT22;11429;50.842;4.386;2023-07-22T14:59:56;23.80;99.90
22526;DHT22;11429;50.842;4.386;2023-07-22T15:02:22;24.10;99.90
22526;DHT22;11429;50.842;4.386;2023-07-22T15:04:48;24.00;99.90
22526;DHT22;11429;50.842;4.386;2023-07-22T15:07:14;24.10;99.90
22526;DHT22;11429;50.842;4.386;2023-07-22T15:09:39;24.10;99.90
22526;DHT22;11429;50.842;4.386;2023-07-22T15:12:06;24.20;99.90
22526;DHT22;11429;50.842;4.386;2023-07-22T15:14:33;24.50;99.90
22526;DHT22;11429;50.842;4.386;2023-07-22T15:16:58;24.10;99.90
22526;DHT22;11429;50.842;4.386;2023-07-22T15:19:25;24.00;99.90
22526;DHT22;11429;50.842;4.386;2023-07-22T15:21:51;23.70;99.90
22526;DHT22;11429;50.842;4.386;2023-07-22T15:24:18;24.00;99.90
22526;DHT22;11429;50.842;4.386;2023-07-22T15:26:44;24.20;99.90
22526;DHT22;11429;50.842;4.386;2023-07-22T15:29:10;24.10;99.90
22526;DHT22;11429;50.842;4.386;2023-07-22T15:31:35;24.20;99.90
22526;DHT22;11429;50.842;4.386;2023-07-22T15:34:01;24.30;99.90
22526;DHT22;11429;50.842;4.386;2023-07-22T15:36:27;24.10;99.90
22526;DHT22;11429;50.842;4.386;2023-07-22T15:38:53;23.70;99.90
22526;DHT22;11429;50.842;4.386;2023-07-22T15:41:19;23.70;99.90
22526;DHT22;11429;50.842;4.386;2023-07-22T15:43:45;23.60;99.90
22526;DHT22;11429;50.842;4.386;2023-07-22T15:46:10;23.50;99.90
22526;DHT22;11429;50.842;4.386;2023-07-22T15:48:36;23.20;99.90
22526;DHT22;11429;50.842;4.386;2023-07-22T15:51:02;23.10;99.90
22526;DHT22;11429;50.842;4.386;2023-07-22T15:53:30;23.30;99.90
22526;DHT22;11429;50.842;4.386;2023-07-22T15:55:56;23.30;99.90
22526;DHT22;11429;50.842;4.386;2023-07-22T15:58:21;23.10;99.90
22526;DHT22;11429;50.842;4.386;2023-07-22T16:00:47;23.10;99.90